createdAt,value
2022-09-25T00:00:56.447Z,12.59
2022-09-25T00:04:57.738Z,12.59
2022-09-25T00:09:00.278Z,12.57
2022-09-25T00:13:01.881Z,12.57
2022-09-25T00:17:03.397Z,12.52
2022-09-25T00:21:05.666Z,12.47
2022-09-25T00:25:13.713Z,12.42
2022-09-25T00:29:18.096Z,12.42
2022-09-25T00:33:19.544Z,12.45
2022-09-25T00:37:21.017Z,12.43
2022-09-25T00:41:29.728Z,12.39
2022-09-25T00:45:31.266Z,12.40
2022-09-25T00:49:32.655Z,12.34
2022-09-25T00:53:36.949Z,12.36
2022-09-25T00:57:39.392Z,12.36
2022-09-25T01:01:41.300Z,12.32
2022-09-25T01:05:44.134Z,12.28
2022-09-25T01:09:46.288Z,12.28
2022-09-25T01:13:47.593Z,12.29
2022-09-25T01:17:54.662Z,12.31
2022-09-25T01:22:05.018Z,12.32
2022-09-25T01:26:25.174Z,12.29
2022-09-25T01:30:26.785Z,12.29
2022-09-25T01:34:41.162Z,12.32
2022-09-25T01:38:56.829Z,12.33
2022-09-25T01:43:04.885Z,12.34
2022-09-25T01:47:09.157Z,12.33
2022-09-25T01:51:21.735Z,12.35
2022-09-25T01:55:46.207Z,12.34
2022-09-25T01:59:59.466Z,12.34
2022-09-25T02:04:14.749Z,12.33
2022-09-25T02:08:28.851Z,12.31
2022-09-25T02:12:34.325Z,12.28
2022-09-25T02:16:38.380Z,12.24
2022-09-25T02:20:42.508Z,12.21
2022-09-25T02:24:59.101Z,12.20
2022-09-25T02:29:02.346Z,12.17
2022-09-25T02:33:03.926Z,12.16
2022-09-25T02:37:19.125Z,12.14
2022-09-25T02:41:31.374Z,12.12
2022-09-25T02:45:41.702Z,12.07
2022-09-25T02:49:55.797Z,12.05
2022-09-25T02:54:13.694Z,12.02
2022-09-25T02:58:27.812Z,11.98
2022-09-25T03:02:30.695Z,11.94
2022-09-25T03:06:32.270Z,11.94
2022-09-25T03:10:35.695Z,11.86
2022-09-25T03:14:36.933Z,11.82
2022-09-25T03:18:45.870Z,11.82
2022-09-25T03:22:47.994Z,11.80
2022-09-25T03:26:49.316Z,11.80
2022-09-25T03:31:04.840Z,11.85
2022-09-25T03:35:06.725Z,11.86
2022-09-25T03:39:10.633Z,11.92
2022-09-25T03:43:18.867Z,11.94
2022-09-25T03:47:20.130Z,11.98
2022-09-25T03:51:21.609Z,12.05
2022-09-25T03:55:22.854Z,12.10
2022-09-25T03:59:24.676Z,12.13
2022-09-25T04:03:35.910Z,12.16
2022-09-25T04:07:37.288Z,12.19
2022-09-25T04:11:38.572Z,12.16
2022-09-25T04:15:42.020Z,12.19
2022-09-25T04:19:43.364Z,12.18
2022-09-25T04:24:04.643Z,12.20
2022-09-25T04:28:07.000Z,12.22
2022-09-25T04:32:26.874Z,12.22
2022-09-25T04:36:28.128Z,12.19
2022-09-25T04:40:36.902Z,12.13
2022-09-25T04:44:38.278Z,12.13
2022-09-25T04:48:39.680Z,12.13
2022-09-25T04:52:40.913Z,12.16
2022-09-25T04:56:45.201Z,12.18
2022-09-25T05:00:46.841Z,12.22
2022-09-25T05:04:48.166Z,12.25
2022-09-25T05:08:49.738Z,12.25
2022-09-25T05:12:54.848Z,12.25
2022-09-25T05:16:56.152Z,12.26
2022-09-25T05:20:58.045Z,12.29
2022-09-25T05:24:59.571Z,12.31
2022-09-25T05:29:07.893Z,12.32
2022-09-25T05:33:16.220Z,12.33
2022-09-25T05:37:17.593Z,12.33
2022-09-25T05:41:18.889Z,12.36
2022-09-25T05:45:21.114Z,12.39
2022-09-25T05:49:23.402Z,12.42
2022-09-25T05:53:25.264Z,12.43
2022-09-25T05:57:28.014Z,12.43
2022-09-25T06:01:29.307Z,12.43
2022-09-25T06:05:30.650Z,12.45
2022-09-25T06:09:38.868Z,12.47
2022-09-25T06:13:49.581Z,12.52
2022-09-25T06:17:55.648Z,12.52
2022-09-25T06:21:59.951Z,12.54
2022-09-25T06:26:02.622Z,12.55
2022-09-25T06:30:04.110Z,12.56
2022-09-25T06:34:05.938Z,12.58
2022-09-25T06:38:07.197Z,12.59
2022-09-25T06:42:14.893Z,12.63
2022-09-25T06:46:16.354Z,12.64
2022-09-25T06:50:17.797Z,12.65
2022-09-25T06:54:19.263Z,12.69
2022-09-25T06:58:28.950Z,12.71
2022-09-25T07:02:48.680Z,12.76
2022-09-25T07:06:50.402Z,12.85
2022-09-25T07:10:53.292Z,12.94
2022-09-25T07:14:54.761Z,13.04
2022-09-25T07:18:57.320Z,13.14
2022-09-25T07:23:03.930Z,13.29
2022-09-25T07:27:11.905Z,13.50
2022-09-25T07:31:24.268Z,13.63
2022-09-25T07:35:27.068Z,13.82
2022-09-25T07:39:28.394Z,13.93
2022-09-25T07:43:29.878Z,14.02
2022-09-25T07:47:37.986Z,14.13
2022-09-25T07:51:39.415Z,14.24
2022-09-25T07:55:41.257Z,14.31
2022-09-25T07:59:49.581Z,14.46
2022-09-25T08:03:51.150Z,14.72
2022-09-25T08:07:52.989Z,15.51
2022-09-25T08:11:54.309Z,16.27
2022-09-25T08:15:56.389Z,16.37
2022-09-25T08:19:58.761Z,16.20
2022-09-25T08:24:08.016Z,15.88
2022-09-25T08:28:15.971Z,15.70
2022-09-25T08:32:17.205Z,15.53
2022-09-25T08:36:18.606Z,15.40
2022-09-25T08:40:23.000Z,15.35
2022-09-25T08:44:24.312Z,15.36
2022-09-25T08:48:52.927Z,15.37
2022-09-25T08:53:12.010Z,15.40
2022-09-25T08:57:16.581Z,15.45
2022-09-25T09:01:23.078Z,15.44
2022-09-25T09:05:29.376Z,15.42
2022-09-25T09:09:35.473Z,15.46
2022-09-25T09:13:43.564Z,15.45
2022-09-25T09:17:44.911Z,15.45
2022-09-25T09:21:46.328Z,15.45
2022-09-25T09:25:47.599Z,15.43
2022-09-25T09:30:09.094Z,15.48
2022-09-25T09:34:40.945Z,15.53
2022-09-25T09:38:58.914Z,15.53
2022-09-25T09:43:01.305Z,15.45
2022-09-25T09:47:11.764Z,15.34
2022-09-25T09:51:22.008Z,15.30
2022-09-25T09:55:33.478Z,15.31
2022-09-25T09:59:43.681Z,15.32
2022-09-25T10:03:47.493Z,15.41
2022-09-25T10:07:57.466Z,15.55
2022-09-25T10:12:11.812Z,15.74
2022-09-25T10:16:22.061Z,15.96
2022-09-25T10:20:24.784Z,15.91
2022-09-25T10:24:45.130Z,15.78
2022-09-25T10:28:46.682Z,15.67
2022-09-25T10:33:07.114Z,15.63
2022-09-25T10:37:19.665Z,15.71
2022-09-25T10:41:21.352Z,15.77
2022-09-25T10:45:29.134Z,15.90
2022-09-25T10:49:49.306Z,15.93
2022-09-25T10:54:17.367Z,16.28
2022-09-25T10:58:24.748Z,16.37
2022-09-25T11:02:39.186Z,16.33
2022-09-25T11:06:52.499Z,16.30
2022-09-25T11:10:57.028Z,16.25
2022-09-25T11:15:12.072Z,16.24
2022-09-25T11:19:19.706Z,16.32
2022-09-25T11:23:34.237Z,16.46
2022-09-25T11:27:43.671Z,16.63
2022-09-25T11:31:59.323Z,16.74
2022-09-25T11:36:04.965Z,16.79
2022-09-25T11:40:38.500Z,16.75
2022-09-25T11:44:57.885Z,16.87
2022-09-25T11:49:12.207Z,16.86
2022-09-25T11:53:17.527Z,16.72
2022-09-25T11:57:39.140Z,16.46
2022-09-25T12:01:45.376Z,16.21
2022-09-25T12:06:05.634Z,16.10
2022-09-25T12:10:19.379Z,16.00
2022-09-25T12:14:20.610Z,15.95
2022-09-25T12:18:40.553Z,15.80
2022-09-25T12:22:51.749Z,15.69
2022-09-25T12:27:04.074Z,15.67
2022-09-25T12:31:08.202Z,15.65
2022-09-25T12:35:13.174Z,15.64
2022-09-25T12:39:35.453Z,15.58
2022-09-25T12:43:59.238Z,15.63
2022-09-25T12:48:26.896Z,15.73
2022-09-25T12:52:42.084Z,15.88
2022-09-25T12:56:51.339Z,15.98
2022-09-25T13:01:03.142Z,15.89
2022-09-25T13:05:22.005Z,15.91
2022-09-25T13:09:29.681Z,16.05
2022-09-25T13:13:36.478Z,16.10
2022-09-25T13:17:45.164Z,16.00
2022-09-25T13:21:47.213Z,15.83
2022-09-25T13:25:58.013Z,15.90
2022-09-25T13:30:01.351Z,15.85
2022-09-25T13:34:03.009Z,15.58
2022-09-25T13:38:14.333Z,15.27
2022-09-25T13:42:18.825Z,15.13
2022-09-25T13:46:21.560Z,15.03
2022-09-25T13:50:27.554Z,14.95
2022-09-25T13:54:36.372Z,14.79
2022-09-25T13:59:03.165Z,14.71
2022-09-25T14:03:05.077Z,14.59
2022-09-25T14:07:13.011Z,14.63
2022-09-25T14:11:16.539Z,14.63
2022-09-25T14:15:21.346Z,14.72
2022-09-25T14:19:39.553Z,14.81
2022-09-25T14:23:51.818Z,14.92
2022-09-25T14:27:54.070Z,14.98
2022-09-25T14:32:05.245Z,15.14
2022-09-25T14:36:12.557Z,15.28
2022-09-25T14:40:22.607Z,15.32
2022-09-25T14:44:36.122Z,15.46
2022-09-25T14:48:45.972Z,15.52
2022-09-25T14:52:55.598Z,15.51
2022-09-25T14:56:57.420Z,15.51
2022-09-25T15:01:05.335Z,15.54
2022-09-25T15:05:17.031Z,15.50
2022-09-25T15:09:34.622Z,15.50
2022-09-25T15:13:36.062Z,15.49
2022-09-25T15:17:49.406Z,15.44
2022-09-25T15:21:52.122Z,15.43
2022-09-25T15:25:57.121Z,15.46
2022-09-25T15:30:00.411Z,15.58
2022-09-25T15:34:03.985Z,15.51
2022-09-25T15:38:13.422Z,15.52
2022-09-25T15:42:14.934Z,15.66
2022-09-25T15:46:31.002Z,15.60
2022-09-25T15:50:32.585Z,15.49
2022-09-25T15:54:42.885Z,15.37
2022-09-25T15:58:46.463Z,15.28
2022-09-25T16:03:09.247Z,15.16
2022-09-25T16:07:47.705Z,15.09
2022-09-25T16:11:49.226Z,14.96
2022-09-25T16:15:52.305Z,14.87
2022-09-25T16:20:05.572Z,14.79
2022-09-25T16:24:10.007Z,14.71
2022-09-25T16:28:23.428Z,14.65
2022-09-25T16:32:31.476Z,14.59
2022-09-25T16:36:47.226Z,14.53
2022-09-25T16:41:02.437Z,14.47
2022-09-25T16:45:14.856Z,14.40
2022-09-25T16:49:26.249Z,14.34
2022-09-25T16:53:30.626Z,14.29
2022-09-25T16:57:32.286Z,14.18
2022-09-25T17:01:33.776Z,13.98
2022-09-25T17:05:42.257Z,13.88
2022-09-25T17:09:43.523Z,13.73
2022-09-25T17:13:52.231Z,13.60
2022-09-25T17:17:55.310Z,13.45
2022-09-25T17:21:57.819Z,13.34
2022-09-25T17:26:19.358Z,13.26
2022-09-25T17:30:20.728Z,13.16
2022-09-25T17:34:28.386Z,13.06
2022-09-25T17:38:38.468Z,12.98
2022-09-25T17:42:40.061Z,12.91
2022-09-25T17:46:48.539Z,12.84
2022-09-25T17:50:50.887Z,12.65
2022-09-25T17:54:52.215Z,12.49
2022-09-25T17:58:56.569Z,12.34
2022-09-25T18:03:04.458Z,12.29
2022-09-25T18:07:26.788Z,12.28
2022-09-25T18:11:31.353Z,12.21
2022-09-25T18:15:40.660Z,12.17
2022-09-25T18:20:00.893Z,12.02
2022-09-25T18:24:02.304Z,11.92
2022-09-25T18:28:03.600Z,11.84
2022-09-25T18:32:04.962Z,11.75
2022-09-25T18:36:12.325Z,11.76
2022-09-25T18:40:14.904Z,11.67
2022-09-25T18:44:24.516Z,11.66
2022-09-25T18:48:32.345Z,11.68
2022-09-25T18:52:40.450Z,11.62
2022-09-25T18:56:42.128Z,11.53
2022-09-25T19:00:43.445Z,11.41
2022-09-25T19:04:45.434Z,11.37
2022-09-25T19:08:54.241Z,11.38
2022-09-25T19:12:55.954Z,11.33
2022-09-25T19:16:57.366Z,11.28
2022-09-25T19:20:58.656Z,11.27
2022-09-25T19:25:00.005Z,11.28
2022-09-25T19:29:01.592Z,11.27
2022-09-25T19:33:09.723Z,11.30
2022-09-25T19:37:18.537Z,11.33
2022-09-25T19:41:22.674Z,11.37
2022-09-25T19:45:24.270Z,11.38
2022-09-25T19:49:25.569Z,11.39
2022-09-25T19:53:27.110Z,11.36
2022-09-25T19:57:28.409Z,11.34
2022-09-25T20:01:30.346Z,11.33
2022-09-25T20:05:36.309Z,11.31
2022-09-25T20:09:40.031Z,11.30
2022-09-25T20:13:41.526Z,11.25
2022-09-25T20:17:43.166Z,11.19
2022-09-25T20:21:51.328Z,11.15
2022-09-25T20:25:52.570Z,11.16
2022-09-25T20:29:53.836Z,11.13
2022-09-25T20:33:55.644Z,11.14
2022-09-25T20:37:56.958Z,11.06
2022-09-25T20:41:59.022Z,11.01
2022-09-25T20:46:04.888Z,10.96
2022-09-25T20:50:07.468Z,10.99
2022-09-25T20:54:09.689Z,10.87
2022-09-25T20:58:11.468Z,10.87
2022-09-25T21:02:12.727Z,10.87
2022-09-25T21:06:24.498Z,10.84
2022-09-25T21:10:32.338Z,10.80
2022-09-25T21:14:34.029Z,10.75
2022-09-25T21:18:35.967Z,10.65
2022-09-25T21:22:37.529Z,10.46
2022-09-25T21:26:45.756Z,10.30
2022-09-25T21:30:47.337Z,10.21
2022-09-25T21:34:48.667Z,10.10
2022-09-25T21:38:50.218Z,10.00
2022-09-25T21:42:51.612Z,9.86
2022-09-25T21:46:52.997Z,9.74
2022-09-25T21:50:55.240Z,9.69
2022-09-25T21:54:57.196Z,9.63
2022-09-25T21:59:00.222Z,9.53
2022-09-25T22:03:03.395Z,9.44
2022-09-25T22:07:04.790Z,9.33
2022-09-25T22:11:07.066Z,9.23
2022-09-25T22:15:09.260Z,9.16
2022-09-25T22:19:15.359Z,9.07
2022-09-25T22:23:16.852Z,8.91
2022-09-25T22:27:24.405Z,8.86
2022-09-25T22:31:27.342Z,8.78
2022-09-25T22:35:28.694Z,8.67
2022-09-25T22:39:30.012Z,8.56
2022-09-25T22:43:31.762Z,8.48
2022-09-25T22:47:33.290Z,8.43
2022-09-25T22:51:41.425Z,8.41
2022-09-25T22:55:42.759Z,8.35
2022-09-25T22:59:50.452Z,8.31
2022-09-25T23:03:56.019Z,8.26
2022-09-25T23:07:57.250Z,8.12
2022-09-25T23:11:58.706Z,8.09
2022-09-25T23:16:07.087Z,8.06
2022-09-25T23:20:15.453Z,8.04
2022-09-25T23:24:17.450Z,7.97
2022-09-25T23:28:18.728Z,7.91
2022-09-25T23:36:46.485Z,7.84
2022-09-25T23:40:47.844Z,7.81
2022-09-25T23:44:49.389Z,7.73
2022-09-25T23:48:51.356Z,7.67
2022-09-25T23:52:52.635Z,7.63
2022-09-25T23:56:53.993Z,7.56
